sensor_id;sensor_type;location;lat;lon;timestamp;P1;durP1;ratioP1;P2;durP2;ratioP2
65471;SDS011;52068;50.710;14.492;2023-08-20T00:01:22;68.28;;;46.08;;
65471;SDS011;52068;50.710;14.492;2023-08-20T00:03:52;64.00;;;45.05;;
65471;SDS011;52068;50.710;14.492;2023-08-20T00:06:18;66.13;;;45.33;;
65471;SDS011;52068;50.710;14.492;2023-08-20T00:08:45;61.72;;;43.60;;
65471;SDS011;52068;50.710;14.492;2023-08-20T00:11:11;64.55;;;44.88;;
65471;SDS011;52068;50.710;14.492;2023-08-20T00:13:37;63.53;;;43.85;;
65471;SDS011;52068;50.710;14.492;2023-08-20T00:16:02;64.43;;;43.03;;
65471;SDS011;52068;50.710;14.492;2023-08-20T00:18:28;67.43;;;44.85;;
65471;SDS011;52068;50.710;14.492;2023-08-20T00:20:54;62.40;;;43.20;;
65471;SDS011;52068;50.710;14.492;2023-08-20T00:23:20;65.45;;;44.00;;
65471;SDS011;52068;50.710;14.492;2023-08-20T00:25:46;65.22;;;43.53;;
65471;SDS011;52068;50.710;14.492;2023-08-20T00:28:12;63.63;;;43.97;;
65471;SDS011;52068;50.710;14.492;2023-08-20T00:30:38;59.97;;;42.88;;
65471;SDS011;52068;50.710;14.492;2023-08-20T00:33:03;58.30;;;42.03;;
65471;SDS011;52068;50.710;14.492;2023-08-20T00:35:29;55.38;;;40.65;;
65471;SDS011;52068;50.710;14.492;2023-08-20T00:37:54;58.95;;;41.72;;
65471;SDS011;52068;50.710;14.492;2023-08-20T00:40:19;57.00;;;41.28;;
65471;SDS011;52068;50.710;14.492;2023-08-20T00:42:45;57.03;;;40.75;;
65471;SDS011;52068;50.710;14.492;2023-08-20T00:45:10;55.70;;;41.50;;
65471;SDS011;52068;50.710;14.492;2023-08-20T00:47:36;61.10;;;40.58;;
65471;SDS011;52068;50.710;14.492;2023-08-20T00:50:02;62.70;;;41.47;;
65471;SDS011;52068;50.710;14.492;2023-08-20T00:52:31;55.88;;;40.08;;
65471;SDS011;52068;50.710;14.492;2023-08-20T00:54:57;54.67;;;40.00;;
65471;SDS011;52068;50.710;14.492;2023-08-20T00:57:23;58.45;;;39.63;;
65471;SDS011;52068;50.710;14.492;2023-08-20T00:59:48;50.28;;;36.40;;
65471;SDS011;52068;50.710;14.492;2023-08-20T01:02:16;53.50;;;38.92;;
65471;SDS011;52068;50.710;14.492;2023-08-20T01:04:42;50.50;;;37.30;;
65471;SDS011;52068;50.710;14.492;2023-08-20T01:12:29;54.53;;;36.47;;
65471;SDS011;52068;50.710;14.492;2023-08-20T01:14:56;48.88;;;35.28;;
65471;SDS011;52068;50.710;14.492;2023-08-20T01:17:21;52.40;;;37.58;;
65471;SDS011;52068;50.710;14.492;2023-08-20T01:19:47;50.15;;;36.38;;
65471;SDS011;52068;50.710;14.492;2023-08-20T01:28:03;54.08;;;35.45;;
65471;SDS011;52068;50.710;14.492;2023-08-20T01:30:44;53.08;;;35.22;;
65471;SDS011;52068;50.710;14.492;2023-08-20T01:33:10;47.70;;;34.72;;
65471;SDS011;52068;50.710;14.492;2023-08-20T01:35:37;55.78;;;34.83;;
65471;SDS011;52068;50.710;14.492;2023-08-20T01:38:03;51.47;;;35.10;;
65471;SDS011;52068;50.710;14.492;2023-08-20T01:40:28;50.75;;;34.00;;
65471;SDS011;52068;50.710;14.492;2023-08-20T01:42:54;49.90;;;34.28;;
65471;SDS011;52068;50.710;14.492;2023-08-20T01:45:19;48.53;;;34.13;;
65471;SDS011;52068;50.710;14.492;2023-08-20T01:47:46;46.20;;;34.05;;
65471;SDS011;52068;50.710;14.492;2023-08-20T01:50:11;49.70;;;34.20;;
65471;SDS011;52068;50.710;14.492;2023-08-20T01:52:37;47.97;;;33.20;;
65471;SDS011;52068;50.710;14.492;2023-08-20T01:55:03;45.90;;;33.17;;
65471;SDS011;52068;50.710;14.492;2023-08-20T01:57:29;47.15;;;32.92;;
65471;SDS011;52068;50.710;14.492;2023-08-20T01:59:54;49.45;;;32.92;;
65471;SDS011;52068;50.710;14.492;2023-08-20T02:02:20;49.08;;;33.67;;
65471;SDS011;52068;50.710;14.492;2023-08-20T02:04:45;46.30;;;31.88;;
65471;SDS011;52068;50.710;14.492;2023-08-20T02:07:10;45.03;;;31.45;;
65471;SDS011;52068;50.710;14.492;2023-08-20T02:09:36;42.80;;;30.90;;
65471;SDS011;52068;50.710;14.492;2023-08-20T02:12:02;44.47;;;30.88;;
65471;SDS011;52068;50.710;14.492;2023-08-20T02:14:27;42.25;;;29.63;;
65471;SDS011;52068;50.710;14.492;2023-08-20T02:16:54;41.55;;;30.48;;
65471;SDS011;52068;50.710;14.492;2023-08-20T02:19:19;44.55;;;31.70;;
65471;SDS011;52068;50.710;14.492;2023-08-20T02:21:44;43.80;;;29.80;;
65471;SDS011;52068;50.710;14.492;2023-08-20T02:24:10;41.63;;;29.20;;
65471;SDS011;52068;50.710;14.492;2023-08-20T02:26:35;41.03;;;29.15;;
65471;SDS011;52068;50.710;14.492;2023-08-20T02:29:00;42.15;;;29.08;;
65471;SDS011;52068;50.710;14.492;2023-08-20T02:31:26;42.72;;;29.95;;
65471;SDS011;52068;50.710;14.492;2023-08-20T02:33:51;42.05;;;28.77;;
65471;SDS011;52068;50.710;14.492;2023-08-20T02:36:16;39.80;;;28.73;;
65471;SDS011;52068;50.710;14.492;2023-08-20T02:38:44;26.05;;;19.60;;
65471;SDS011;52068;50.710;14.492;2023-08-20T02:41:10;30.90;;;17.20;;
65471;SDS011;52068;50.710;14.492;2023-08-20T02:43:37;25.23;;;13.60;;
65471;SDS011;52068;50.710;14.492;2023-08-20T02:46:02;17.15;;;10.57;;
65471;SDS011;52068;50.710;14.492;2023-08-20T02:48:28;13.70;;;10.10;;
65471;SDS011;52068;50.710;14.492;2023-08-20T02:50:54;15.70;;;10.00;;
65471;SDS011;52068;50.710;14.492;2023-08-20T02:53:20;12.10;;;6.95;;
65471;SDS011;52068;50.710;14.492;2023-08-20T02:55:46;9.82;;;7.60;;
65471;SDS011;52068;50.710;14.492;2023-08-20T02:58:11;12.43;;;6.32;;
65471;SDS011;52068;50.710;14.492;2023-08-20T03:00:36;8.02;;;6.22;;
65471;SDS011;52068;50.710;14.492;2023-08-20T03:03:02;8.80;;;6.35;;
65471;SDS011;52068;50.710;14.492;2023-08-20T03:05:31;11.90;;;5.53;;
65471;SDS011;52068;50.710;14.492;2023-08-20T03:07:56;8.48;;;4.53;;
65471;SDS011;52068;50.710;14.492;2023-08-20T03:10:22;6.85;;;4.28;;
65471;SDS011;52068;50.710;14.492;2023-08-20T03:12:47;6.28;;;4.45;;
65471;SDS011;52068;50.710;14.492;2023-08-20T03:15:13;5.07;;;4.13;;
65471;SDS011;52068;50.710;14.492;2023-08-20T03:17:38;7.80;;;4.20;;
65471;SDS011;52068;50.710;14.492;2023-08-20T03:20:04;5.85;;;4.22;;
65471;SDS011;52068;50.710;14.492;2023-08-20T03:22:31;4.25;;;3.85;;
65471;SDS011;52068;50.710;14.492;2023-08-20T03:24:58;6.30;;;4.07;;
65471;SDS011;52068;50.710;14.492;2023-08-20T03:27:23;4.68;;;4.07;;
65471;SDS011;52068;50.710;14.492;2023-08-20T03:29:48;5.30;;;3.65;;
65471;SDS011;52068;50.710;14.492;2023-08-20T03:32:14;5.53;;;3.88;;
65471;SDS011;52068;50.710;14.492;2023-08-20T03:34:39;5.28;;;3.58;;
65471;SDS011;52068;50.710;14.492;2023-08-20T03:37:05;4.20;;;3.60;;
65471;SDS011;52068;50.710;14.492;2023-08-20T03:39:30;4.35;;;3.50;;
65471;SDS011;52068;50.710;14.492;2023-08-20T03:41:56;4.00;;;3.60;;
65471;SDS011;52068;50.710;14.492;2023-08-20T03:44:22;4.88;;;3.80;;
65471;SDS011;52068;50.710;14.492;2023-08-20T03:46:48;6.68;;;3.67;;
65471;SDS011;52068;50.710;14.492;2023-08-20T03:49:13;4.32;;;3.20;;
65471;SDS011;52068;50.710;14.492;2023-08-20T03:51:38;3.80;;;3.20;;
65471;SDS011;52068;50.710;14.492;2023-08-20T03:54:04;7.63;;;3.53;;
65471;SDS011;52068;50.710;14.492;2023-08-20T03:56:29;3.58;;;3.28;;
65471;SDS011;52068;50.710;14.492;2023-08-20T03:58:55;6.80;;;3.58;;
65471;SDS011;52068;50.710;14.492;2023-08-20T04:01:20;4.03;;;3.63;;
65471;SDS011;52068;50.710;14.492;2023-08-20T04:03:46;4.80;;;3.60;;
65471;SDS011;52068;50.710;14.492;2023-08-20T04:06:13;3.95;;;3.53;;
65471;SDS011;52068;50.710;14.492;2023-08-20T04:08:39;6.97;;;3.83;;
65471;SDS011;52068;50.710;14.492;2023-08-20T04:11:04;5.70;;;3.65;;
65471;SDS011;52068;50.710;14.492;2023-08-20T04:13:30;4.55;;;3.60;;
65471;SDS011;52068;50.710;14.492;2023-08-20T04:15:56;5.95;;;3.90;;
65471;SDS011;52068;50.710;14.492;2023-08-20T04:18:21;5.80;;;3.53;;
65471;SDS011;52068;50.710;14.492;2023-08-20T04:20:47;5.47;;;3.50;;
65471;SDS011;52068;50.710;14.492;2023-08-20T04:23:14;4.20;;;3.65;;
65471;SDS011;52068;50.710;14.492;2023-08-20T04:25:40;4.55;;;3.60;;
65471;SDS011;52068;50.710;14.492;2023-08-20T04:28:06;4.20;;;3.38;;
65471;SDS011;52068;50.710;14.492;2023-08-20T04:30:31;4.03;;;3.53;;
65471;SDS011;52068;50.710;14.492;2023-08-20T04:32:57;4.20;;;3.80;;
65471;SDS011;52068;50.710;14.492;2023-08-20T04:35:22;4.00;;;3.25;;
65471;SDS011;52068;50.710;14.492;2023-08-20T04:37:47;4.13;;;3.72;;
65471;SDS011;52068;50.710;14.492;2023-08-20T04:40:13;6.65;;;3.50;;
65471;SDS011;52068;50.710;14.492;2023-08-20T04:42:38;4.00;;;3.67;;
65471;SDS011;52068;50.710;14.492;2023-08-20T04:45:04;4.80;;;3.22;;
65471;SDS011;52068;50.710;14.492;2023-08-20T04:47:29;3.85;;;3.55;;
65471;SDS011;52068;50.710;14.492;2023-08-20T04:49:55;3.63;;;3.33;;
65471;SDS011;52068;50.710;14.492;2023-08-20T04:52:20;4.47;;;3.90;;
65471;SDS011;52068;50.710;14.492;2023-08-20T04:54:46;5.70;;;3.70;;
65471;SDS011;52068;50.710;14.492;2023-08-20T04:57:12;9.68;;;4.35;;
65471;SDS011;52068;50.710;14.492;2023-08-20T04:59:38;6.13;;;4.05;;
65471;SDS011;52068;50.710;14.492;2023-08-20T05:02:03;6.18;;;4.03;;
65471;SDS011;52068;50.710;14.492;2023-08-20T05:04:28;4.85;;;3.92;;
65471;SDS011;52068;50.710;14.492;2023-08-20T05:06:54;4.20;;;3.80;;
65471;SDS011;52068;50.710;14.492;2023-08-20T05:09:19;5.78;;;3.97;;
65471;SDS011;52068;50.710;14.492;2023-08-20T05:11:45;6.80;;;3.72;;
65471;SDS011;52068;50.710;14.492;2023-08-20T05:14:10;5.63;;;4.15;;
65471;SDS011;52068;50.710;14.492;2023-08-20T05:16:35;6.53;;;4.20;;
65471;SDS011;52068;50.710;14.492;2023-08-20T05:19:01;4.65;;;4.05;;
65471;SDS011;52068;50.710;14.492;2023-08-20T05:21:26;8.02;;;4.63;;
65471;SDS011;52068;50.710;14.492;2023-08-20T05:23:51;4.72;;;3.50;;
65471;SDS011;52068;50.710;14.492;2023-08-20T05:26:17;5.13;;;4.10;;
65471;SDS011;52068;50.710;14.492;2023-08-20T05:28:42;4.35;;;3.45;;
65471;SDS011;52068;50.710;14.492;2023-08-20T05:31:07;5.20;;;4.30;;
65471;SDS011;52068;50.710;14.492;2023-08-20T05:33:33;8.57;;;4.50;;
65471;SDS011;52068;50.710;14.492;2023-08-20T05:35:59;10.63;;;4.47;;
65471;SDS011;52068;50.710;14.492;2023-08-20T05:38:24;5.15;;;4.65;;
65471;SDS011;52068;50.710;14.492;2023-08-20T05:40:50;8.18;;;4.40;;
65471;SDS011;52068;50.710;14.492;2023-08-20T05:43:15;5.75;;;5.15;;
65471;SDS011;52068;50.710;14.492;2023-08-20T05:45:41;7.85;;;4.97;;
65471;SDS011;52068;50.710;14.492;2023-08-20T05:48:06;10.15;;;4.57;;
65471;SDS011;52068;50.710;14.492;2023-08-20T05:50:32;10.25;;;4.68;;
65471;SDS011;52068;50.710;14.492;2023-08-20T05:52:57;6.05;;;4.88;;
65471;SDS011;52068;50.710;14.492;2023-08-20T05:55:22;11.40;;;4.70;;
65471;SDS011;52068;50.710;14.492;2023-08-20T05:57:48;8.07;;;5.30;;
65471;SDS011;52068;50.710;14.492;2023-08-20T06:00:13;14.98;;;5.68;;
65471;SDS011;52068;50.710;14.492;2023-08-20T06:02:40;15.93;;;5.15;;
65471;SDS011;52068;50.710;14.492;2023-08-20T06:05:05;8.57;;;5.43;;
65471;SDS011;52068;50.710;14.492;2023-08-20T06:07:31;17.45;;;5.22;;
65471;SDS011;52068;50.710;14.492;2023-08-20T06:09:56;8.15;;;5.10;;
65471;SDS011;52068;50.710;14.492;2023-08-20T06:12:22;11.10;;;5.18;;
65471;SDS011;52068;50.710;14.492;2023-08-20T06:14:48;8.23;;;5.38;;
65471;SDS011;52068;50.710;14.492;2023-08-20T06:17:13;13.52;;;5.45;;
65471;SDS011;52068;50.710;14.492;2023-08-20T06:19:39;10.55;;;5.22;;
65471;SDS011;52068;50.710;14.492;2023-08-20T06:22:04;8.85;;;5.50;;
65471;SDS011;52068;50.710;14.492;2023-08-20T06:24:29;9.55;;;5.43;;
65471;SDS011;52068;50.710;14.492;2023-08-20T06:26:55;9.20;;;5.82;;
65471;SDS011;52068;50.710;14.492;2023-08-20T06:29:20;6.82;;;4.97;;
65471;SDS011;52068;50.710;14.492;2023-08-20T06:31:47;13.20;;;5.65;;
65471;SDS011;52068;50.710;14.492;2023-08-20T06:34:14;7.10;;;5.22;;
65471;SDS011;52068;50.710;14.492;2023-08-20T06:36:39;7.53;;;4.88;;
65471;SDS011;52068;50.710;14.492;2023-08-20T06:39:05;7.68;;;5.55;;
65471;SDS011;52068;50.710;14.492;2023-08-20T06:41:30;7.60;;;5.82;;
65471;SDS011;52068;50.710;14.492;2023-08-20T06:43:56;9.32;;;5.32;;
65471;SDS011;52068;50.710;14.492;2023-08-20T06:46:21;7.32;;;5.70;;
65471;SDS011;52068;50.710;14.492;2023-08-20T06:48:46;9.55;;;5.35;;
65471;SDS011;52068;50.710;14.492;2023-08-20T06:51:15;8.23;;;5.25;;
65471;SDS011;52068;50.710;14.492;2023-08-20T06:53:43;7.03;;;5.22;;
65471;SDS011;52068;50.710;14.492;2023-08-20T06:56:09;9.95;;;6.05;;
65471;SDS011;52068;50.710;14.492;2023-08-20T06:58:36;7.38;;;5.25;;
65471;SDS011;52068;50.710;14.492;2023-08-20T07:01:01;9.88;;;5.85;;
65471;SDS011;52068;50.710;14.492;2023-08-20T07:03:38;12.40;;;5.68;;
65471;SDS011;52068;50.710;14.492;2023-08-20T07:06:05;7.15;;;5.20;;
65471;SDS011;52068;50.710;14.492;2023-08-20T07:08:31;7.03;;;6.10;;
65471;SDS011;52068;50.710;14.492;2023-08-20T07:10:56;10.90;;;6.05;;
65471;SDS011;52068;50.710;14.492;2023-08-20T07:13:22;10.88;;;6.40;;
65471;SDS011;52068;50.710;14.492;2023-08-20T07:15:48;15.07;;;5.80;;
65471;SDS011;52068;50.710;14.492;2023-08-20T07:18:14;11.57;;;6.40;;
65471;SDS011;52068;50.710;14.492;2023-08-20T07:20:41;10.57;;;6.32;;
65471;SDS011;52068;50.710;14.492;2023-08-20T07:23:08;8.63;;;6.22;;
65471;SDS011;52068;50.710;14.492;2023-08-20T07:25:34;8.45;;;5.65;;
65471;SDS011;52068;50.710;14.492;2023-08-20T07:28:01;10.98;;;6.50;;
65471;SDS011;52068;50.710;14.492;2023-08-20T07:30:27;9.82;;;5.70;;
65471;SDS011;52068;50.710;14.492;2023-08-20T07:32:53;9.45;;;5.93;;
65471;SDS011;52068;50.710;14.492;2023-08-20T07:35:18;8.52;;;5.50;;
65471;SDS011;52068;50.710;14.492;2023-08-20T07:37:43;9.10;;;5.65;;
65471;SDS011;52068;50.710;14.492;2023-08-20T07:40:11;10.18;;;5.55;;
65471;SDS011;52068;50.710;14.492;2023-08-20T07:42:36;10.82;;;5.78;;
65471;SDS011;52068;50.710;14.492;2023-08-20T07:45:01;10.18;;;6.18;;
65471;SDS011;52068;50.710;14.492;2023-08-20T07:47:27;7.38;;;5.18;;
65471;SDS011;52068;50.710;14.492;2023-08-20T07:49:54;10.27;;;5.85;;
65471;SDS011;52068;50.710;14.492;2023-08-20T07:52:19;8.68;;;5.13;;
65471;SDS011;52068;50.710;14.492;2023-08-20T07:54:45;8.40;;;5.15;;
65471;SDS011;52068;50.710;14.492;2023-08-20T07:57:10;8.43;;;5.63;;
65471;SDS011;52068;50.710;14.492;2023-08-20T07:59:36;13.52;;;5.53;;
65471;SDS011;52068;50.710;14.492;2023-08-20T08:02:02;8.07;;;5.70;;
65471;SDS011;52068;50.710;14.492;2023-08-20T08:04:27;7.25;;;5.13;;
65471;SDS011;52068;50.710;14.492;2023-08-20T08:06:53;7.93;;;5.18;;
65471;SDS011;52068;50.710;14.492;2023-08-20T08:09:19;7.70;;;5.28;;
65471;SDS011;52068;50.710;14.492;2023-08-20T08:12:05;7.03;;;5.15;;
65471;SDS011;52068;50.710;14.492;2023-08-20T08:14:30;10.23;;;5.22;;
65471;SDS011;52068;50.710;14.492;2023-08-20T08:16:56;7.45;;;5.35;;
65471;SDS011;52068;50.710;14.492;2023-08-20T08:19:22;7.43;;;5.07;;
65471;SDS011;52068;50.710;14.492;2023-08-20T08:21:47;8.00;;;5.30;;
65471;SDS011;52068;50.710;14.492;2023-08-20T08:24:14;8.68;;;4.97;;
65471;SDS011;52068;50.710;14.492;2023-08-20T08:26:40;8.60;;;5.40;;
65471;SDS011;52068;50.710;14.492;2023-08-20T08:29:06;6.00;;;4.82;;
65471;SDS011;52068;50.710;14.492;2023-08-20T08:31:32;6.82;;;5.03;;
65471;SDS011;52068;50.710;14.492;2023-08-20T08:33:58;9.48;;;5.55;;
65471;SDS011;52068;50.710;14.492;2023-08-20T08:36:24;7.72;;;5.20;;
65471;SDS011;52068;50.710;14.492;2023-08-20T08:38:50;9.52;;;5.50;;
65471;SDS011;52068;50.710;14.492;2023-08-20T08:41:19;10.13;;;4.78;;
65471;SDS011;52068;50.710;14.492;2023-08-20T08:43:46;7.90;;;5.45;;
65471;SDS011;52068;50.710;14.492;2023-08-20T08:46:13;7.88;;;5.45;;
65471;SDS011;52068;50.710;14.492;2023-08-20T08:48:43;11.45;;;5.63;;
65471;SDS011;52068;50.710;14.492;2023-08-20T08:51:09;8.68;;;5.50;;
65471;SDS011;52068;50.710;14.492;2023-08-20T08:53:38;16.08;;;5.30;;
65471;SDS011;52068;50.710;14.492;2023-08-20T08:56:04;6.15;;;5.35;;
65471;SDS011;52068;50.710;14.492;2023-08-20T08:58:32;11.35;;;4.88;;
65471;SDS011;52068;50.710;14.492;2023-08-20T09:00:58;5.85;;;4.65;;
65471;SDS011;52068;50.710;14.492;2023-08-20T09:03:24;6.75;;;5.53;;
65471;SDS011;52068;50.710;14.492;2023-08-20T09:05:50;9.38;;;5.68;;
65471;SDS011;52068;50.710;14.492;2023-08-20T09:08:21;8.82;;;5.38;;
65471;SDS011;52068;50.710;14.492;2023-08-20T09:10:50;9.55;;;5.07;;
65471;SDS011;52068;50.710;14.492;2023-08-20T09:13:16;6.78;;;4.90;;
65471;SDS011;52068;50.710;14.492;2023-08-20T09:15:42;6.57;;;5.15;;
65471;SDS011;52068;50.710;14.492;2023-08-20T09:18:11;6.85;;;5.32;;
65471;SDS011;52068;50.710;14.492;2023-08-20T09:20:37;5.90;;;4.72;;
65471;SDS011;52068;50.710;14.492;2023-08-20T09:23:03;8.20;;;5.55;;
65471;SDS011;52068;50.710;14.492;2023-08-20T09:25:30;9.18;;;4.78;;
65471;SDS011;52068;50.710;14.492;2023-08-20T09:27:56;7.22;;;4.72;;
65471;SDS011;52068;50.710;14.492;2023-08-20T09:30:21;7.43;;;5.07;;
65471;SDS011;52068;50.710;14.492;2023-08-20T09:33:02;6.18;;;4.80;;
65471;SDS011;52068;50.710;14.492;2023-08-20T09:35:38;8.63;;;5.28;;
65471;SDS011;52068;50.710;14.492;2023-08-20T09:38:13;6.30;;;4.43;;
65471;SDS011;52068;50.710;14.492;2023-08-20T09:40:38;9.30;;;5.32;;
65471;SDS011;52068;50.710;14.492;2023-08-20T09:43:04;6.53;;;4.93;;
65471;SDS011;52068;50.710;14.492;2023-08-20T09:45:33;8.57;;;5.00;;
65471;SDS011;52068;50.710;14.492;2023-08-20T09:47:59;6.28;;;5.00;;
65471;SDS011;52068;50.710;14.492;2023-08-20T09:50:28;6.80;;;5.25;;
65471;SDS011;52068;50.710;14.492;2023-08-20T09:52:58;6.47;;;5.40;;
65471;SDS011;52068;50.710;14.492;2023-08-20T09:55:34;6.57;;;4.97;;
65471;SDS011;52068;50.710;14.492;2023-08-20T09:58:03;5.65;;;5.05;;
65471;SDS011;52068;50.710;14.492;2023-08-20T10:00:30;7.95;;;5.82;;
65471;SDS011;52068;50.710;14.492;2023-08-20T10:02:57;8.35;;;5.28;;
65471;SDS011;52068;50.710;14.492;2023-08-20T10:05:22;8.80;;;4.55;;
65471;SDS011;52068;50.710;14.492;2023-08-20T10:07:48;5.47;;;4.97;;
65471;SDS011;52068;50.710;14.492;2023-08-20T10:10:15;10.68;;;5.72;;
65471;SDS011;52068;50.710;14.492;2023-08-20T10:12:41;7.38;;;5.53;;
65471;SDS011;52068;50.710;14.492;2023-08-20T10:15:09;9.02;;;5.30;;
65471;SDS011;52068;50.710;14.492;2023-08-20T10:17:35;7.43;;;5.88;;
65471;SDS011;52068;50.710;14.492;2023-08-20T10:20:03;6.20;;;5.05;;
65471;SDS011;52068;50.710;14.492;2023-08-20T10:22:33;6.35;;;5.38;;
65471;SDS011;52068;50.710;14.492;2023-08-20T10:25:00;6.68;;;5.22;;
65471;SDS011;52068;50.710;14.492;2023-08-20T10:27:31;6.53;;;5.15;;
65471;SDS011;52068;50.710;14.492;2023-08-20T10:29:59;7.03;;;5.22;;
65471;SDS011;52068;50.710;14.492;2023-08-20T10:35:13;7.60;;;5.40;;
65471;SDS011;52068;50.710;14.492;2023-08-20T10:37:56;9.13;;;5.07;;
65471;SDS011;52068;50.710;14.492;2023-08-20T10:46:08;7.95;;;5.57;;
65471;SDS011;52068;50.710;14.492;2023-08-20T10:48:50;8.65;;;5.57;;
65471;SDS011;52068;50.710;14.492;2023-08-20T10:51:27;5.93;;;5.30;;
65471;SDS011;52068;50.710;14.492;2023-08-20T10:56:26;7.18;;;5.53;;
65471;SDS011;52068;50.710;14.492;2023-08-20T10:59:15;8.60;;;5.22;;
65471;SDS011;52068;50.710;14.492;2023-08-20T11:01:47;8.15;;;5.38;;
65471;SDS011;52068;50.710;14.492;2023-08-20T11:04:20;9.20;;;5.60;;
65471;SDS011;52068;50.710;14.492;2023-08-20T11:06:52;10.13;;;6.10;;
65471;SDS011;52068;50.710;14.492;2023-08-20T11:09:21;8.82;;;5.32;;
65471;SDS011;52068;50.710;14.492;2023-08-20T11:11:47;7.57;;;5.50;;
65471;SDS011;52068;50.710;14.492;2023-08-20T11:14:13;7.18;;;4.90;;
65471;SDS011;52068;50.710;14.492;2023-08-20T11:16:40;6.07;;;5.47;;
65471;SDS011;52068;50.710;14.492;2023-08-20T11:19:06;6.85;;;5.60;;
65471;SDS011;52068;50.710;14.492;2023-08-20T11:21:35;5.78;;;5.20;;
65471;SDS011;52068;50.710;14.492;2023-08-20T11:24:02;6.53;;;5.75;;
65471;SDS011;52068;50.710;14.492;2023-08-20T11:26:28;7.80;;;5.38;;
65471;SDS011;52068;50.710;14.492;2023-08-20T11:28:53;6.18;;;5.57;;
65471;SDS011;52068;50.710;14.492;2023-08-20T11:31:19;5.80;;;5.20;;
65471;SDS011;52068;50.710;14.492;2023-08-20T11:33:44;6.07;;;5.47;;
65471;SDS011;52068;50.710;14.492;2023-08-20T11:36:11;7.85;;;5.57;;
65471;SDS011;52068;50.710;14.492;2023-08-20T11:38:36;8.65;;;5.60;;
65471;SDS011;52068;50.710;14.492;2023-08-20T11:41:02;6.97;;;5.35;;
65471;SDS011;52068;50.710;14.492;2023-08-20T11:43:28;5.97;;;5.05;;
65471;SDS011;52068;50.710;14.492;2023-08-20T11:45:53;8.60;;;5.50;;
65471;SDS011;52068;50.710;14.492;2023-08-20T11:48:19;10.48;;;5.22;;
65471;SDS011;52068;50.710;14.492;2023-08-20T11:50:46;5.55;;;5.05;;
65471;SDS011;52068;50.710;14.492;2023-08-20T11:53:12;6.70;;;5.63;;
65471;SDS011;52068;50.710;14.492;2023-08-20T11:55:38;8.63;;;5.78;;
65471;SDS011;52068;50.710;14.492;2023-08-20T11:58:05;5.40;;;4.70;;
65471;SDS011;52068;50.710;14.492;2023-08-20T12:00:31;8.85;;;4.57;;
65471;SDS011;52068;50.710;14.492;2023-08-20T12:02:57;6.80;;;5.00;;
65471;SDS011;52068;50.710;14.492;2023-08-20T12:05:29;5.07;;;4.65;;
65471;SDS011;52068;50.710;14.492;2023-08-20T12:07:55;10.10;;;4.40;;
65471;SDS011;52068;50.710;14.492;2023-08-20T12:10:25;5.30;;;4.53;;
65471;SDS011;52068;50.710;14.492;2023-08-20T12:12:52;4.90;;;4.40;;
65471;SDS011;52068;50.710;14.492;2023-08-20T12:15:19;5.38;;;4.72;;
65471;SDS011;52068;50.710;14.492;2023-08-20T12:18:04;6.60;;;4.97;;
65471;SDS011;52068;50.710;14.492;2023-08-20T12:20:31;5.20;;;4.70;;
65471;SDS011;52068;50.710;14.492;2023-08-20T12:22:58;7.07;;;4.70;;
65471;SDS011;52068;50.710;14.492;2023-08-20T12:25:25;5.82;;;4.95;;
65471;SDS011;52068;50.710;14.492;2023-08-20T12:27:51;5.30;;;4.28;;
65471;SDS011;52068;50.710;14.492;2023-08-20T12:30:16;8.75;;;4.38;;
65471;SDS011;52068;50.710;14.492;2023-08-20T12:32:42;4.78;;;4.38;;
65471;SDS011;52068;50.710;14.492;2023-08-20T12:35:07;5.63;;;4.38;;
65471;SDS011;52068;50.710;14.492;2023-08-20T12:37:33;5.65;;;4.70;;
65471;SDS011;52068;50.710;14.492;2023-08-20T12:39:59;4.53;;;4.13;;
65471;SDS011;52068;50.710;14.492;2023-08-20T12:42:24;4.95;;;4.47;;
65471;SDS011;52068;50.710;14.492;2023-08-20T12:44:50;5.15;;;4.22;;
65471;SDS011;52068;50.710;14.492;2023-08-20T12:47:15;5.35;;;4.43;;
65471;SDS011;52068;50.710;14.492;2023-08-20T12:49:41;5.25;;;4.53;;
65471;SDS011;52068;50.710;14.492;2023-08-20T12:52:06;4.88;;;3.83;;
65471;SDS011;52068;50.710;14.492;2023-08-20T12:54:32;4.95;;;4.40;;
65471;SDS011;52068;50.710;14.492;2023-08-20T12:56:57;4.50;;;4.10;;
65471;SDS011;52068;50.710;14.492;2023-08-20T12:59:23;4.85;;;4.32;;
65471;SDS011;52068;50.710;14.492;2023-08-20T13:01:48;4.80;;;4.30;;
65471;SDS011;52068;50.710;14.492;2023-08-20T13:04:14;6.18;;;4.90;;
65471;SDS011;52068;50.710;14.492;2023-08-20T13:06:39;6.25;;;5.10;;
65471;SDS011;52068;50.710;14.492;2023-08-20T13:09:06;5.40;;;4.88;;
65471;SDS011;52068;50.710;14.492;2023-08-20T13:11:34;7.55;;;5.28;;
65471;SDS011;52068;50.710;14.492;2023-08-20T13:14:01;7.10;;;5.30;;
65471;SDS011;52068;50.710;14.492;2023-08-20T13:16:26;5.30;;;4.80;;
65471;SDS011;52068;50.710;14.492;2023-08-20T13:18:52;7.35;;;5.70;;
65471;SDS011;52068;50.710;14.492;2023-08-20T13:21:18;5.90;;;4.78;;
65471;SDS011;52068;50.710;14.492;2023-08-20T13:23:43;10.82;;;5.25;;
65471;SDS011;52068;50.710;14.492;2023-08-20T13:26:09;5.50;;;4.97;;
65471;SDS011;52068;50.710;14.492;2023-08-20T13:28:34;6.00;;;5.00;;
65471;SDS011;52068;50.710;14.492;2023-08-20T13:31:00;5.65;;;5.05;;
65471;SDS011;52068;50.710;14.492;2023-08-20T13:33:25;5.43;;;4.88;;
65471;SDS011;52068;50.710;14.492;2023-08-20T13:35:51;6.78;;;5.43;;
65471;SDS011;52068;50.710;14.492;2023-08-20T13:38:17;6.15;;;5.38;;
65471;SDS011;52068;50.710;14.492;2023-08-20T13:40:42;5.72;;;5.03;;
65471;SDS011;52068;50.710;14.492;2023-08-20T13:43:07;6.55;;;5.38;;
65471;SDS011;52068;50.710;14.492;2023-08-20T13:45:34;6.03;;;4.95;;
65471;SDS011;52068;50.710;14.492;2023-08-20T13:47:59;7.68;;;4.95;;
65471;SDS011;52068;50.710;14.492;2023-08-20T13:50:25;7.28;;;5.38;;
65471;SDS011;52068;50.710;14.492;2023-08-20T13:52:50;5.63;;;4.97;;
65471;SDS011;52068;50.710;14.492;2023-08-20T13:55:15;7.30;;;5.47;;
65471;SDS011;52068;50.710;14.492;2023-08-20T13:57:41;9.43;;;4.80;;
65471;SDS011;52068;50.710;14.492;2023-08-20T14:00:06;6.05;;;4.93;;
65471;SDS011;52068;50.710;14.492;2023-08-20T14:02:34;4.97;;;4.53;;
65471;SDS011;52068;50.710;14.492;2023-08-20T14:05:00;9.63;;;5.15;;
65471;SDS011;52068;50.710;14.492;2023-08-20T14:07:25;7.75;;;4.95;;
65471;SDS011;52068;50.710;14.492;2023-08-20T14:09:51;5.60;;;4.97;;
65471;SDS011;52068;50.710;14.492;2023-08-20T14:12:16;8.30;;;5.88;;
65471;SDS011;52068;50.710;14.492;2023-08-20T14:14:42;5.80;;;5.20;;
65471;SDS011;52068;50.710;14.492;2023-08-20T14:17:07;10.43;;;5.60;;
65471;SDS011;52068;50.710;14.492;2023-08-20T14:19:34;6.85;;;4.97;;
65471;SDS011;52068;50.710;14.492;2023-08-20T14:21:59;5.68;;;5.18;;
65471;SDS011;52068;50.710;14.492;2023-08-20T14:24:24;5.90;;;5.28;;
65471;SDS011;52068;50.710;14.492;2023-08-20T14:26:50;7.35;;;5.22;;
65471;SDS011;52068;50.710;14.492;2023-08-20T14:29:15;6.45;;;5.22;;
65471;SDS011;52068;50.710;14.492;2023-08-20T14:31:40;7.93;;;5.30;;
65471;SDS011;52068;50.710;14.492;2023-08-20T14:34:07;5.70;;;5.05;;
65471;SDS011;52068;50.710;14.492;2023-08-20T14:36:32;6.80;;;5.18;;
65471;SDS011;52068;50.710;14.492;2023-08-20T14:38:58;6.90;;;4.72;;
65471;SDS011;52068;50.710;14.492;2023-08-20T14:41:23;6.80;;;4.90;;
65471;SDS011;52068;50.710;14.492;2023-08-20T14:43:48;5.40;;;4.90;;
65471;SDS011;52068;50.710;14.492;2023-08-20T14:46:14;9.57;;;5.00;;